Terminal Aerodrome Forecast
Issued by NWS Memphis, TN

Home | Current Version | Previous Version | Text Only | Print | Product List | Glossary On
Versions: 1 2 3 4 5 6 7 8 9 10 11 12 13 14 15 16
000
FTUS44 KMEG 290524
TAFMKL
TAF
KMKL 290524Z 2906/3006 00000KT P6SM SKC
     FM291300 16006KT P6SM OVC035
     FM291500 16010G18KT P6SM OVC025
     FM292100 18012G20KT P6SM SCT035
     FM300100 22007KT P6SM VCSH OVC040
      TEMPO 3002/3005 5SM -SHRA BR OVC025
     FM300500 27005KT P6SM -SHRA BKN025=

USA.gov is the U.S. government's official web portal to all federal, state and local government web resources and services.